createdAt,value
2022-11-25T00:01:07.537Z,0.37
2022-11-25T00:03:36.611Z,0.36
2022-11-25T00:06:15.656Z,0.37
2022-11-25T00:08:44.647Z,0.41
2022-11-25T00:11:13.854Z,0.52
2022-11-25T00:13:42.841Z,0.52
2022-11-25T00:16:14.040Z,0.53
2022-11-25T00:18:45.573Z,0.57
2022-11-25T00:21:15.824Z,0.55
2022-11-25T00:23:43.622Z,0.61
2022-11-25T00:26:13.480Z,0.58
2022-11-25T00:28:42.988Z,0.58
2022-11-25T00:31:14.058Z,0.58
2022-11-25T00:33:42.512Z,0.59
2022-11-25T00:36:20.266Z,0.60
2022-11-25T00:38:48.714Z,0.63
2022-11-25T00:41:33.905Z,0.62
2022-11-25T00:44:19.384Z,0.66
2022-11-25T00:46:48.644Z,0.65
2022-11-25T00:49:17.123Z,0.68
2022-11-25T00:51:45.004Z,0.61
2022-11-25T00:54:13.059Z,0.53
2022-11-25T00:56:41.153Z,0.63
2022-11-25T00:59:09.876Z,0.58
2022-11-25T01:01:38.161Z,0.68
2022-11-25T01:04:08.508Z,0.69
2022-11-25T01:06:37.856Z,0.63
2022-11-25T01:09:06.958Z,0.69
2022-11-25T01:11:35.123Z,0.66
2022-11-25T01:14:03.081Z,0.66
2022-11-25T01:16:31.758Z,0.65
2022-11-25T01:19:00.852Z,0.65
2022-11-25T01:21:32.457Z,0.66
2022-11-25T01:24:01.657Z,0.71
2022-11-25T01:26:30.807Z,0.77
2022-11-25T01:29:01.369Z,0.67
2022-11-25T01:31:32.264Z,0.69
2022-11-25T01:34:02.535Z,0.71
2022-11-25T01:36:32.261Z,0.70
2022-11-25T01:39:01.611Z,0.68
2022-11-25T01:41:32.257Z,0.74
2022-11-25T01:44:19.398Z,0.68
2022-11-25T01:47:04.613Z,0.67
2022-11-25T01:49:37.742Z,0.71
2022-11-25T01:52:14.026Z,0.73
2022-11-25T01:54:48.002Z,0.75
2022-11-25T01:57:21.714Z,0.67
2022-11-25T01:59:53.475Z,0.71
2022-11-25T02:02:22.437Z,0.71
2022-11-25T02:04:50.649Z,0.70
2022-11-25T02:07:27.777Z,0.74
2022-11-25T02:09:57.228Z,0.69
2022-11-25T02:12:25.446Z,0.69
2022-11-25T02:14:56.137Z,0.75
2022-11-25T02:17:24.103Z,0.77
2022-11-25T02:20:00.360Z,0.77
2022-11-25T02:22:42.746Z,0.76
2022-11-25T02:25:16.222Z,0.79
2022-11-25T02:27:47.213Z,0.81
2022-11-25T02:30:15.439Z,0.79
2022-11-25T02:32:47.394Z,0.81
2022-11-25T02:35:27.488Z,0.80
2022-11-25T02:37:58.082Z,0.78
2022-11-25T02:40:28.997Z,0.71
2022-11-25T02:42:59.791Z,0.75
2022-11-25T02:45:34.457Z,0.73
2022-11-25T02:48:02.671Z,0.71
2022-11-25T02:50:30.431Z,0.70
2022-11-25T02:52:58.266Z,0.72
2022-11-25T02:55:27.674Z,0.71
2022-11-25T02:57:55.458Z,0.71
2022-11-25T03:00:23.651Z,0.71
2022-11-25T03:02:54.520Z,0.71
2022-11-25T03:05:22.993Z,0.66
2022-11-25T03:07:51.239Z,0.64
2022-11-25T03:10:19.571Z,0.64
2022-11-25T03:12:49.132Z,0.67
2022-11-25T03:15:17.528Z,0.68
2022-11-25T03:17:45.568Z,0.62
2022-11-25T03:20:15.200Z,0.66
2022-11-25T03:22:43.997Z,0.63
2022-11-25T03:25:12.643Z,0.59
2022-11-25T03:27:41.629Z,0.62
2022-11-25T03:30:14.026Z,0.60
2022-11-25T03:32:42.992Z,0.58
2022-11-25T03:35:11.960Z,0.58
2022-11-25T03:37:40.432Z,0.53
2022-11-25T03:40:10.258Z,0.53
2022-11-25T03:42:38.110Z,0.51
2022-11-25T03:45:07.535Z,0.53
2022-11-25T03:47:37.058Z,0.51
2022-11-25T03:50:06.090Z,0.54
2022-11-25T03:52:34.022Z,0.50
2022-11-25T03:55:01.985Z,0.56
2022-11-25T03:57:29.777Z,0.55
2022-11-25T03:59:57.600Z,0.55
2022-11-25T04:02:25.652Z,0.53
2022-11-25T04:04:54.789Z,0.53
2022-11-25T04:07:22.671Z,0.62
2022-11-25T04:09:50.655Z,0.61
2022-11-25T04:12:36.070Z,0.58
2022-11-25T04:15:04.105Z,0.61
2022-11-25T04:17:31.995Z,0.71
2022-11-25T04:20:01.532Z,0.73
2022-11-25T04:22:29.388Z,0.74
2022-11-25T04:24:57.258Z,0.79
2022-11-25T04:27:25.094Z,0.74
2022-11-25T04:29:52.961Z,0.73
2022-11-25T04:32:20.776Z,0.73
2022-11-25T04:34:48.626Z,0.73
2022-11-25T04:37:17.817Z,0.78
2022-11-25T04:39:45.778Z,0.77
2022-11-25T04:42:31.200Z,0.74
2022-11-25T04:45:21.437Z,0.78
2022-11-25T04:47:47.130Z,0.75
2022-11-25T04:50:18.715Z,0.75
2022-11-25T04:52:48.058Z,0.76
2022-11-25T04:55:16.212Z,0.79
2022-11-25T04:57:44.049Z,0.84
2022-11-25T05:00:13.278Z,0.81
2022-11-25T05:02:41.801Z,0.79
2022-11-25T05:05:10.405Z,0.78
2022-11-25T05:07:38.714Z,0.80
2022-11-25T05:10:09.573Z,0.83
2022-11-25T05:12:37.859Z,0.82
2022-11-25T05:15:06.516Z,0.84
2022-11-25T05:17:34.704Z,0.83
2022-11-25T05:20:03.191Z,0.82
2022-11-25T05:22:33.503Z,0.79
2022-11-25T05:25:01.647Z,0.77
2022-11-25T05:27:30.877Z,0.78
2022-11-25T05:29:58.710Z,0.79
2022-11-25T05:32:26.542Z,0.79
2022-11-25T05:34:54.376Z,0.76
2022-11-25T05:37:24.486Z,0.76
2022-11-25T05:39:52.963Z,0.75
2022-11-25T05:42:21.021Z,0.76
2022-11-25T05:44:50.322Z,0.76
2022-11-25T05:47:18.166Z,0.74
2022-11-25T05:49:46.095Z,0.71
2022-11-25T05:52:13.898Z,0.74
2022-11-25T05:54:41.678Z,0.73
2022-11-25T05:57:09.697Z,0.73
2022-11-25T05:59:37.620Z,0.69
2022-11-25T06:02:07.108Z,0.68
2022-11-25T06:04:35.463Z,0.61
2022-11-25T06:07:03.478Z,0.67
2022-11-25T06:09:31.342Z,0.66
2022-11-25T06:11:59.115Z,0.67
2022-11-25T06:14:26.919Z,0.68
2022-11-25T06:16:54.752Z,0.66
2022-11-25T06:19:23.962Z,0.65
2022-11-25T06:21:51.758Z,0.63
2022-11-25T06:24:19.691Z,0.62
2022-11-25T06:26:47.496Z,0.60
2022-11-25T06:29:15.260Z,0.61
2022-11-25T06:31:43.235Z,0.60
2022-11-25T06:34:11.179Z,0.59
2022-11-25T06:36:40.383Z,0.58
2022-11-25T06:39:08.734Z,0.58
2022-11-25T06:41:36.693Z,0.56
2022-11-25T06:44:04.650Z,0.57
2022-11-25T06:46:32.615Z,0.57
2022-11-25T06:49:01.631Z,0.56
2022-11-25T06:51:29.412Z,0.59
2022-11-25T06:53:59.003Z,0.58
2022-11-25T06:56:29.033Z,0.57
2022-11-25T06:58:57.053Z,0.59
2022-11-25T07:01:26.443Z,0.50
2022-11-25T07:03:57.057Z,0.57
2022-11-25T07:06:24.956Z,0.56
2022-11-25T07:08:53.060Z,0.54
2022-11-25T07:11:24.407Z,0.56
2022-11-25T07:13:53.436Z,0.58
2022-11-25T07:16:21.296Z,0.59
2022-11-25T07:18:49.237Z,0.61
2022-11-25T07:21:20.164Z,0.61
2022-11-25T07:23:48.773Z,0.61
2022-11-25T07:26:19.595Z,0.69
2022-11-25T07:28:49.789Z,0.74
2022-11-25T07:31:24.732Z,0.77
2022-11-25T07:33:58.061Z,0.83
2022-11-25T07:36:26.848Z,0.91
2022-11-25T07:38:54.851Z,0.98
2022-11-25T07:41:24.762Z,1.05
2022-11-25T07:43:55.483Z,1.06
2022-11-25T07:46:27.392Z,1.12
2022-11-25T07:48:56.934Z,1.18
2022-11-25T07:51:27.550Z,1.18
2022-11-25T07:53:57.281Z,1.27
2022-11-25T07:56:25.453Z,1.31
2022-11-25T07:58:55.064Z,1.33
2022-11-25T08:01:23.308Z,1.33
2022-11-25T08:03:52.262Z,1.26
2022-11-25T08:06:22.070Z,1.31
2022-11-25T08:08:52.825Z,1.31
2022-11-25T08:11:22.814Z,1.31
2022-11-25T08:13:51.071Z,1.31
2022-11-25T08:16:22.721Z,1.32
2022-11-25T08:18:51.544Z,1.32
2022-11-25T08:21:20.288Z,1.27
2022-11-25T08:23:48.989Z,1.33
2022-11-25T08:26:19.408Z,1.35
2022-11-25T08:28:48.095Z,1.36
2022-11-25T08:31:18.473Z,1.39
2022-11-25T08:33:48.292Z,1.43
2022-11-25T08:36:17.368Z,1.48
2022-11-25T08:38:49.162Z,1.52
2022-11-25T08:41:20.704Z,1.60
2022-11-25T08:43:48.996Z,1.67
2022-11-25T08:46:19.977Z,1.72
2022-11-25T08:48:49.177Z,1.83
2022-11-25T08:51:19.826Z,1.85
2022-11-25T08:53:48.586Z,1.91
2022-11-25T08:56:17.177Z,1.83
2022-11-25T08:58:50.234Z,1.95
2022-11-25T09:01:19.845Z,1.92
2022-11-25T09:03:51.504Z,2.01
2022-11-25T09:06:20.013Z,2.05
2022-11-25T09:08:49.128Z,2.09
2022-11-25T09:11:17.406Z,2.08
2022-11-25T09:13:45.487Z,2.05
2022-11-25T09:16:13.537Z,2.13
2022-11-25T09:18:41.326Z,2.22
2022-11-25T09:21:12.915Z,2.28
2022-11-25T09:23:41.432Z,2.38
2022-11-25T09:26:13.302Z,2.23
2022-11-25T09:28:41.176Z,2.38
2022-11-25T09:31:10.036Z,2.43
2022-11-25T09:33:38.663Z,2.46
2022-11-25T09:36:07.052Z,2.49
2022-11-25T09:38:41.690Z,2.53
2022-11-25T09:41:39.956Z,2.54
2022-11-25T09:44:35.722Z,2.52
2022-11-25T09:47:10.767Z,2.53
2022-11-25T09:49:56.730Z,2.57
2022-11-25T09:52:30.865Z,2.70
2022-11-25T09:55:04.814Z,2.75
2022-11-25T09:57:48.339Z,3.00
2022-11-25T10:00:18.972Z,3.08
2022-11-25T10:02:55.363Z,3.16
2022-11-25T10:05:26.702Z,3.23
2022-11-25T10:07:59.333Z,3.27
2022-11-25T10:10:32.182Z,3.51
2022-11-25T10:13:00.963Z,3.58
2022-11-25T10:15:34.475Z,3.62
2022-11-25T10:18:07.254Z,3.79
2022-11-25T10:20:37.896Z,3.91
2022-11-25T10:23:11.783Z,4.09
2022-11-25T10:25:46.840Z,4.18
2022-11-25T10:28:20.295Z,4.15
2022-11-25T10:31:00.179Z,4.22
2022-11-25T10:33:31.818Z,4.39
2022-11-25T10:36:02.474Z,4.41
2022-11-25T10:38:37.086Z,4.56
2022-11-25T10:41:06.788Z,4.61
2022-11-25T10:43:35.377Z,4.73
2022-11-25T10:46:12.580Z,4.64
2022-11-25T10:48:55.296Z,4.70
2022-11-25T10:51:37.040Z,4.70
2022-11-25T10:54:15.040Z,4.69
2022-11-25T10:56:51.113Z,4.58
2022-11-25T10:59:30.880Z,4.46
2022-11-25T11:02:22.501Z,4.37
2022-11-25T11:04:55.543Z,4.21
2022-11-25T11:07:24.655Z,3.94
2022-11-25T11:09:53.707Z,4.10
2022-11-25T11:12:25.611Z,4.09
2022-11-25T11:14:54.240Z,4.04
2022-11-25T11:17:36.668Z,4.00
2022-11-25T11:20:22.795Z,3.96
2022-11-25T11:22:57.571Z,3.92
2022-11-25T11:25:31.914Z,3.88
2022-11-25T11:28:01.541Z,3.84
2022-11-25T11:30:30.945Z,3.80
2022-11-25T11:33:05.110Z,3.79
2022-11-25T11:35:48.754Z,3.79
2022-11-25T11:38:26.527Z,3.80
2022-11-25T11:41:01.498Z,3.79
2022-11-25T11:43:43.550Z,3.78
2022-11-25T11:46:27.581Z,3.67
2022-11-25T11:49:06.766Z,3.62
2022-11-25T11:51:41.796Z,3.57
2022-11-25T11:54:14.904Z,3.60
2022-11-25T11:56:51.994Z,3.59
2022-11-25T11:59:37.791Z,3.51
2022-11-25T12:02:17.767Z,3.51
2022-11-25T12:04:52.335Z,3.41
2022-11-25T12:07:28.195Z,3.48
2022-11-25T12:10:00.461Z,3.48
2022-11-25T12:12:34.962Z,3.34
2022-11-25T12:15:13.689Z,3.36
2022-11-25T12:17:47.845Z,3.34
2022-11-25T12:20:21.474Z,3.32
2022-11-25T12:22:55.106Z,3.28
2022-11-25T12:25:25.690Z,3.16
2022-11-25T12:28:00.022Z,3.28
2022-11-25T12:30:35.979Z,3.20
2022-11-25T12:33:11.025Z,3.15
2022-11-25T12:35:51.035Z,3.11
2022-11-25T12:38:27.003Z,3.02
2022-11-25T12:41:02.613Z,3.02
2022-11-25T12:43:41.902Z,2.97
2022-11-25T12:46:20.214Z,2.92
2022-11-25T12:48:48.093Z,2.94
2022-11-25T12:51:24.731Z,2.89
2022-11-25T12:54:07.698Z,2.91
2022-11-25T12:56:53.956Z,2.91
2022-11-25T12:59:48.449Z,2.89
2022-11-25T13:02:36.954Z,2.86
2022-11-25T13:08:31.067Z,2.75
2022-11-25T13:10:55.717Z,2.75
2022-11-25T13:11:12.618Z,2.72
2022-11-25T13:13:54.049Z,2.59
2022-11-25T13:16:23.850Z,2.52
2022-11-25T13:18:54.640Z,2.51
2022-11-25T13:21:24.251Z,2.39
2022-11-25T13:23:56.133Z,2.47
2022-11-25T13:26:51.100Z,2.48
2022-11-25T13:30:01.822Z,2.48
2022-11-25T13:32:32.904Z,2.46
2022-11-25T13:35:40.247Z,2.43
2022-11-25T13:38:37.716Z,2.37
2022-11-25T13:41:23.621Z,2.27
2022-11-25T13:44:02.041Z,2.20
2022-11-25T13:46:39.728Z,2.11
2022-11-25T13:49:26.360Z,2.03
2022-11-25T13:51:57.040Z,1.93
2022-11-25T13:54:31.835Z,1.84
2022-11-25T13:57:15.708Z,1.76
2022-11-25T13:59:52.616Z,1.66
2022-11-25T14:02:45.413Z,1.55
2022-11-25T14:05:54.993Z,1.40
2022-11-25T14:08:31.839Z,1.35
2022-11-25T14:11:18.487Z,1.30
2022-11-25T14:14:05.557Z,1.26
2022-11-25T14:16:46.599Z,1.22
2022-11-25T14:19:54.723Z,1.19
2022-11-25T14:22:39.818Z,1.12
2022-11-25T14:25:17.578Z,1.18
2022-11-25T14:27:48.320Z,1.16
2022-11-25T14:30:18.071Z,1.16
2022-11-25T14:32:53.433Z,1.18
2022-11-25T14:35:25.223Z,1.17
2022-11-25T14:38:01.270Z,1.16
2022-11-25T14:40:36.200Z,1.16
2022-11-25T14:43:06.879Z,1.18
2022-11-25T14:45:36.270Z,1.18
2022-11-25T14:48:16.772Z,1.17
2022-11-25T14:50:56.435Z,1.15
2022-11-25T14:53:26.563Z,1.14
2022-11-25T14:55:55.039Z,1.11
2022-11-25T14:58:23.474Z,1.10
2022-11-25T15:00:52.806Z,1.07
2022-11-25T15:03:21.555Z,1.07
2022-11-25T15:05:57.174Z,1.06
2022-11-25T15:08:27.434Z,1.05
2022-11-25T15:10:58.422Z,1.02
2022-11-25T15:13:33.350Z,1.05
2022-11-25T15:16:07.981Z,1.05
2022-11-25T15:18:36.984Z,0.99
2022-11-25T15:21:05.626Z,1.03
2022-11-25T15:23:38.909Z,1.02
2022-11-25T15:26:18.911Z,1.02
2022-11-25T15:28:48.270Z,1.02
2022-11-25T15:31:21.014Z,1.03
2022-11-25T15:33:54.894Z,1.05
2022-11-25T15:36:24.247Z,1.03
2022-11-25T15:38:53.759Z,1.05
2022-11-25T15:41:32.056Z,1.05
2022-11-25T15:44:02.568Z,1.08
2022-11-25T15:46:33.690Z,1.05
2022-11-25T15:49:04.340Z,1.02
2022-11-25T15:51:42.778Z,1.01
2022-11-25T15:54:20.083Z,1.02
2022-11-25T15:56:50.413Z,1.05
2022-11-25T15:59:42.158Z,1.04
2022-11-25T16:02:53.599Z,1.03
2022-11-25T16:05:39.316Z,1.03
2022-11-25T16:08:26.798Z,1.06
2022-11-25T16:10:59.300Z,1.06
2022-11-25T16:13:37.159Z,1.08
2022-11-25T16:16:21.088Z,1.10
2022-11-25T16:19:18.423Z,1.15
2022-11-25T16:22:01.266Z,1.02
2022-11-25T16:24:42.563Z,1.12
2022-11-25T16:27:20.970Z,1.12
2022-11-25T16:29:51.632Z,1.13
2022-11-25T16:32:21.561Z,1.12
2022-11-25T16:34:50.043Z,1.12
2022-11-25T16:37:17.891Z,1.12
2022-11-25T16:39:45.844Z,1.15
2022-11-25T16:42:22.692Z,1.12
2022-11-25T16:44:52.655Z,1.12
2022-11-25T16:47:21.860Z,1.06
2022-11-25T16:49:50.164Z,1.10
2022-11-25T16:52:18.110Z,1.13
2022-11-25T16:54:47.403Z,1.17
2022-11-25T16:57:20.051Z,1.18
2022-11-25T16:59:57.292Z,1.17
2022-11-25T17:02:27.061Z,1.19
2022-11-25T17:04:54.877Z,1.21
2022-11-25T17:07:38.598Z,1.21
2022-11-25T17:10:08.801Z,1.20
2022-11-25T17:12:38.593Z,1.21
2022-11-25T17:15:15.205Z,1.21
2022-11-25T17:17:45.866Z,1.18
2022-11-25T17:20:17.145Z,1.20
2022-11-25T17:22:45.072Z,1.20
2022-11-25T17:25:13.622Z,1.21
2022-11-25T17:27:42.694Z,1.20
2022-11-25T17:30:18.127Z,1.12
2022-11-25T17:32:46.820Z,1.08
2022-11-25T17:35:19.754Z,1.04
2022-11-25T17:37:48.357Z,1.08
2022-11-25T17:40:16.912Z,1.07
2022-11-25T17:42:48.403Z,1.13
2022-11-25T17:45:20.356Z,1.12
2022-11-25T17:47:48.619Z,1.10
2022-11-25T17:50:19.186Z,1.07
2022-11-25T17:52:47.005Z,1.09
2022-11-25T17:55:19.432Z,1.11
2022-11-25T17:57:47.779Z,1.12
2022-11-25T18:00:19.720Z,1.10
2022-11-25T18:02:48.107Z,1.09
2022-11-25T18:05:20.561Z,1.07
2022-11-25T18:07:48.788Z,1.13
2022-11-25T18:10:18.559Z,1.17
2022-11-25T18:12:48.337Z,1.17
2022-11-25T18:15:20.144Z,1.16
2022-11-25T18:17:49.987Z,1.18
2022-11-25T18:20:20.214Z,1.17
2022-11-25T18:22:49.263Z,1.18
2022-11-25T18:25:18.924Z,1.17
2022-11-25T18:27:48.703Z,1.18
2022-11-25T18:30:20.401Z,1.21
2022-11-25T18:32:48.547Z,1.19
2022-11-25T18:35:18.706Z,1.20
2022-11-25T18:37:46.792Z,1.17
2022-11-25T18:40:15.874Z,1.16
2022-11-25T18:42:46.161Z,1.18
2022-11-25T18:45:21.515Z,1.18
2022-11-25T18:47:49.389Z,1.11
2022-11-25T18:50:19.727Z,1.08
2022-11-25T18:52:47.955Z,1.07
2022-11-25T18:55:18.078Z,1.07
2022-11-25T18:57:48.184Z,0.98
2022-11-25T19:00:36.242Z,1.03
2022-11-25T19:03:05.019Z,1.00
2022-11-25T19:05:34.315Z,0.98
2022-11-25T19:08:03.502Z,0.97
2022-11-25T19:10:35.115Z,0.94
2022-11-25T19:13:06.422Z,0.93
2022-11-25T19:15:37.525Z,0.93
2022-11-25T19:18:07.882Z,0.95
2022-11-25T19:20:35.784Z,0.94
2022-11-25T19:23:17.087Z,0.98
2022-11-25T19:25:45.638Z,0.97
2022-11-25T19:28:16.193Z,0.98
2022-11-25T19:30:47.531Z,1.01
2022-11-25T19:33:23.468Z,1.02
2022-11-25T19:35:51.588Z,1.06
2022-11-25T19:38:25.210Z,1.07
2022-11-25T19:40:53.483Z,1.12
2022-11-25T19:43:22.788Z,1.12
2022-11-25T19:45:52.045Z,1.12
2022-11-25T19:48:21.886Z,1.14
2022-11-25T19:50:52.007Z,1.04
2022-11-25T19:53:23.031Z,1.12
2022-11-25T19:55:50.868Z,1.13
2022-11-25T19:58:18.761Z,1.12
2022-11-25T20:00:48.640Z,1.13
2022-11-25T20:03:22.101Z,1.13
2022-11-25T20:05:51.558Z,1.14
2022-11-25T20:08:20.823Z,1.18
2022-11-25T20:10:48.847Z,1.18
2022-11-25T20:13:16.759Z,1.21
2022-11-25T20:15:46.104Z,1.04
2022-11-25T20:18:18.336Z,1.17
2022-11-25T20:20:50.074Z,1.21
2022-11-25T20:23:26.188Z,1.21
2022-11-25T20:25:54.482Z,1.22
2022-11-25T20:28:25.116Z,1.22
2022-11-25T20:30:54.079Z,1.19
2022-11-25T20:33:24.949Z,1.19
2022-11-25T20:36:00.754Z,1.19
2022-11-25T20:38:31.109Z,1.18
2022-11-25T20:41:00.914Z,1.18
2022-11-25T20:43:30.800Z,1.16
2022-11-25T20:46:00.478Z,1.18
2022-11-25T20:48:29.741Z,1.17
2022-11-25T20:51:01.401Z,1.19
2022-11-25T20:53:32.349Z,1.19
2022-11-25T20:56:00.871Z,1.20
2022-11-25T20:58:30.727Z,1.19
2022-11-25T21:00:59.657Z,1.18
2022-11-25T21:03:27.719Z,1.17
2022-11-25T21:05:58.099Z,1.08
2022-11-25T21:08:31.573Z,1.16
2022-11-25T21:11:00.191Z,1.18
2022-11-25T21:13:30.030Z,1.20
2022-11-25T21:15:59.265Z,1.20
2022-11-25T21:18:27.143Z,1.18
2022-11-25T21:20:58.196Z,1.19
2022-11-25T21:23:31.399Z,1.22
2022-11-25T21:26:03.938Z,1.24
2022-11-25T21:28:33.887Z,1.24
2022-11-25T21:31:04.841Z,1.26
2022-11-25T21:33:36.478Z,1.26
2022-11-25T21:36:04.949Z,1.24
2022-11-25T21:38:34.067Z,1.23
2022-11-25T21:41:01.925Z,1.22
2022-11-25T21:43:33.488Z,1.20
2022-11-25T21:46:04.434Z,1.16
2022-11-25T21:48:32.790Z,1.17
2022-11-25T21:51:00.706Z,1.15
2022-11-25T21:53:30.997Z,1.15
2022-11-25T21:56:04.288Z,1.14
2022-11-25T21:58:32.830Z,1.14
2022-11-25T22:01:03.116Z,1.12
2022-11-25T22:03:32.766Z,1.10
2022-11-25T22:06:00.831Z,1.09
2022-11-25T22:08:31.247Z,1.08
2022-11-25T22:10:59.221Z,1.09
2022-11-25T22:13:35.143Z,1.07
2022-11-25T22:16:03.241Z,1.07
2022-11-25T22:18:33.809Z,1.06
2022-11-25T22:21:02.541Z,1.05
2022-11-25T22:23:30.902Z,1.04
2022-11-25T22:25:59.252Z,1.01
2022-11-25T22:28:30.822Z,1.00
2022-11-25T22:31:02.098Z,1.01
2022-11-25T22:33:32.173Z,1.04
2022-11-25T22:36:00.645Z,1.05
2022-11-25T22:38:30.049Z,1.06
2022-11-25T22:41:00.625Z,1.04
2022-11-25T22:43:33.735Z,1.07
2022-11-25T22:46:02.141Z,1.07
2022-11-25T22:48:33.117Z,1.06
2022-11-25T22:51:01.000Z,1.05
2022-11-25T22:53:29.235Z,1.07
2022-11-25T22:55:58.239Z,1.09
2022-11-25T22:58:27.676Z,1.07
2022-11-25T23:00:57.597Z,1.07
2022-11-25T23:03:29.283Z,1.00
2022-11-25T23:05:57.829Z,1.12
2022-11-25T23:08:27.766Z,1.14
2022-11-25T23:10:56.332Z,1.15
2022-11-25T23:13:25.009Z,1.15
2022-11-25T23:15:54.493Z,1.16
2022-11-25T23:18:27.334Z,1.16
2022-11-25T23:20:55.411Z,1.08
2022-11-25T23:23:27.001Z,1.17
2022-11-25T23:25:55.299Z,1.15
2022-11-25T23:28:23.549Z,1.20
2022-11-25T23:30:53.584Z,1.20
2022-11-25T23:33:31.410Z,1.20
2022-11-25T23:36:04.774Z,1.17
2022-11-25T23:38:39.485Z,1.06
2022-11-25T23:41:07.366Z,1.24
2022-11-25T23:43:35.466Z,1.20
2022-11-25T23:46:03.564Z,1.23
2022-11-25T23:48:33.197Z,1.16
2022-11-25T23:51:01.526Z,1.26
2022-11-25T23:53:32.526Z,1.23
2022-11-25T23:56:00.851Z,1.20
2022-11-25T23:58:29.051Z,1.23
